Latest Weather Observations for Lucinda

IDQ60801

Issued at 8:02 am EST Saturday 28 March 2015 (issued every 30 minutes, with the page automatically refreshed every 10 minutes)

About weather observations | Map of weather stations | Latest weather observations for QLD | Other Formats
Station Details ID: 032141 Name: LUCINDA POINT Lat: -18.52 Lon: 146.39 Height: 10.0 m
Data from the previous 72 hours. | See also: Recent months for locations in Queensland
Date/Time
EST
Temp
°C
App
Temp
°C
Dew
Point
Rel
Hum
%
Delta-T
°C
Wind Press
QNH
hPa
Press
MSL
hPa
Rain
since 9 am
mm
Dir
 
Spd
km/h
Gust
km/h
Spd
kts
Gust
kts
28/08:00am 28.6 27.8 18.1 53 6.7 SE 19 28 10 15 1016.2 1016.1 0.2
28/07:30am 27.8 27.8 18.2 56 6.1 SE 15 24 8 13 1015.7 1015.6 0.2
28/07:00am 27.7 27.6 17.8 54 6.3 SE 15 24 8 13 1015.5 1015.4 0.2
28/06:30am 27.5 27.4 17.9 55 6.1 E 15 26 8 14 1015.2 1015.1 0.2
28/06:00am 27.6 27.3 18.3 57 5.9 ESE 17 22 9 12 1014.8 1014.7 0.2
28/05:30am 27.2 27.6 19.0 61 5.3 SE 15 24 8 13 1014.5 1014.4 0.2
28/05:00am 27.0 28.8 19.6 64 4.8 SE 9 15 5 8 1014.3 1014.2 0.2
28/04:30am 27.2 27.8 19.5 62 5.0 SE 15 20 8 11 1014.1 1014.0 0.2
28/04:00am 27.5 28.9 19.6 62 5.1 SE 11 20 6 11 1014.0 1013.9 0.2
28/03:30am 27.4 27.7 18.7 59 5.6 ESE 15 22 8 12 1014.0 1013.9 0.2
28/03:00am 27.5 27.9 18.2 57 5.9 SE 13 20 7 11 1014.1 1014.0 0.2
28/02:30am 27.5 28.2 18.8 59 5.6 ESE 13 20 7 11 1014.1 1014.0 0.2
28/02:00am 27.5 27.8 18.8 59 5.6 ESE 15 26 8 14 1014.2 1014.1 0.2
28/01:30am 27.7 28.6 19.2 60 5.5 SE 13 22 7 12 1014.4 1014.3 0.2
28/01:00am 27.6 29.5 19.7 62 5.1 SE 9 17 5 9 1014.7 1014.6 0.2
28/12:30am 27.6 28.8 19.9 63 5.0 SE 13 22 7 12 1015.0 1014.9 0.2
28/12:00am 27.6 28.4 19.9 63 5.0 ESE 15 20 8 11 1015.2 1015.1 0.2
 
Date/Time
EST
Temp
°C
App
Temp
°C
Dew
Point
Rel
Hum
%
Delta-T
°C
Wind Press
QNH
hPa
Press
MSL
hPa
Rain
since 9 am
mm
Dir
 
Spd
km/h
Gust
km/h
Spd
kts
Gust
kts
27/11:30pm 27.6 28.7 19.7 62 5.1 ESE 13 20 7 11 1015.4 1015.3 0.2
27/11:00pm 27.7 28.0 19.5 61 5.3 ESE 17 24 9 13 1015.5 1015.4 0.2
27/10:30pm 27.7 28.6 20.0 63 5.0 ESE 15 20 8 11 1015.6 1015.5 0.2
27/10:00pm 27.9 27.7 19.4 60 5.5 ESE 19 24 10 13 1015.8 1015.7 0.2
27/09:30pm 27.6 28.9 20.2 64 4.8 ESE 13 17 7 9 1015.8 1015.7 0.2
27/09:00pm 27.7 29.7 20.8 66 4.6 SE 11 20 6 11 1015.5 1015.4 0.2
27/08:30pm 27.8 29.3 19.8 61 5.2 ESE 11 17 6 9 1015.2 1015.1 0.2
27/08:00pm 27.8 29.2 19.6 61 5.3 ESE 11 17 6 9 1014.9 1014.8 0.2
27/07:30pm 27.8 29.1 19.3 60 5.5 ESE 11 15 6 8 1014.6 1014.5 0.2
27/07:00pm 27.9 29.4 19.7 61 5.3 SE 11 20 6 11 1014.3 1014.2 0.2
27/06:30pm 28.0 29.0 19.5 60 5.5 E 13 17 7 9 1014.0 1013.9 0.2
27/06:00pm 28.3 30.0 20.1 61 5.4 E 11 15 6 8 1013.8 1013.7 0.2
27/05:30pm 28.4 29.5 18.8 56 6.2 E 11 15 6 8 1013.7 1013.6 0.2
27/05:00pm 28.7 29.0 18.8 55 6.4 E 15 19 8 10 1013.7 1013.6 0.2
27/04:30pm 28.6 29.1 18.4 54 6.5 E 13 17 7 9 1013.5 1013.4 0.2
27/04:00pm 29.3 30.4 18.1 51 7.2 ESE 9 15 5 8 1013.5 1013.4 0.2
27/03:30pm 29.0 29.8 19.0 54 6.5 ESE 13 17 7 9 1013.5 1013.4 0.2
27/03:00pm 28.9 29.6 18.9 54 6.5 E 13 19 7 10 1013.6 1013.5 0.2
27/02:30pm 29.4 30.2 19.1 54 6.7 ESE 13 20 7 11 1013.7 1013.6 0.2
27/02:00pm 29.3 29.7 19.0 53 6.7 ESE 15 20 8 11 1013.8 1013.7 0.2
27/01:30pm 29.3 29.6 19.6 56 6.3 ESE 17 22 9 12 1014.2 1014.1 0.2
27/01:00pm 29.7 30.5 19.1 53 6.9 ESE 13 19 7 10 1014.6 1014.5 0.2
27/12:30pm 29.3 29.2 18.7 52 6.8 ESE 17 22 9 12 1015.0 1014.9 0.2
27/12:00pm 29.6 29.6 18.1 50 7.3 ESE 15 22 8 12 1015.5 1015.4 0.2
27/11:30am 29.3 28.8 18.7 52 6.8 ESE 19 26 10 14 1015.9 1015.8 0.2
27/11:00am 29.3 28.8 18.7 52 6.8 ESE 19 28 10 15 1016.6 1016.5 0.2
27/10:30am 27.2 28.8 20.8 68 4.2 SSW 13 19 7 10 1016.8 1016.7 0.2
27/10:00am 27.2 29.1 20.5 67 4.4 SSW 11 15 6 8 1016.9 1016.8 0.0
27/09:30am 27.0 28.8 20.3 66 4.4 SSW 11 17 6 9 1016.9 1016.8 0.0
27/09:00am 26.2 27.6 20.3 70 3.9 SSW 13 19 7 10 1016.9 1016.8 6.6
27/08:30am 26.0 27.3 20.1 70 3.8 SW 13 17 7 9 1016.6 1016.5 6.6
27/08:00am 25.6 27.1 20.6 74 3.3 SW 13 15 7 8 1016.4 1016.3 6.6
27/07:30am 24.6 26.6 21.5 83 2.1 SSW 13 17 7 9 1016.0 1015.9 6.6
27/07:00am 25.6 26.9 20.2 72 3.5 WSW 13 19 7 10 1015.9 1015.8 0.0
27/06:30am 25.5 26.1 20.3 73 3.4 SW 17 19 9 10 1015.5 1015.4 0.0
27/06:00am 25.3 25.8 20.1 73 3.4 WSW 17 19 9 10 1015.2 1015.1 0.0
27/05:30am 25.3 25.8 20.1 73 3.4 WSW 17 19 9 10 1015.0 1014.9 0.0
27/05:00am 25.3 26.2 20.1 73 3.4 WSW 15 17 8 9 1014.8 1014.7 0.0
27/04:30am 25.5 25.8 20.3 73 3.4 SW 19 20 10 11 1014.9 1014.8 0.0
27/04:00am 25.5 26.1 20.3 73 3.4 SW 17 20 9 11 1014.7 1014.6 0.0
27/03:30am 26.1 27.4 20.2 70 3.8 SW 13 15 7 8 1014.7 1014.6 0.0
27/03:00am 27.4 29.4 19.2 61 5.3 ESE 7 13 4 7 1014.8 1014.7 0.0
27/02:30am 27.4 28.4 18.7 59 5.6 E 11 15 6 8 1014.9 1014.8 0.0
27/02:00am 27.4 29.0 19.2 61 5.3 ESE 9 13 5 7 1015.1 1015.0 0.0
27/01:30am 27.5 29.2 19.3 61 5.3 ESE 9 15 5 8 1015.4 1015.3 0.0
27/01:00am 27.5 29.0 19.0 59 5.5 ESE 9 15 5 8 1015.7 1015.6 0.0
27/12:30am 27.6 29.1 18.9 59 5.6 ESE 9 15 5 8 1016.0 1015.9 0.0
27/12:00am 27.8 28.5 18.8 58 5.8 ESE 13 19 7 10 1016.1 1016.0 0.0
 
Date/Time
EST
Temp
°C
App
Temp
°C
Dew
Point
Rel
Hum
%
Delta-T
°C
Wind Press
QNH
hPa
Press
MSL
hPa
Rain
since 9 am
mm
Dir
 
Spd
km/h
Gust
km/h
Spd
kts
Gust
kts
26/11:30pm 27.9 28.4 18.3 56 6.1 ESE 13 20 7 11 1016.3 1016.2 0.0
26/11:00pm 27.9 28.0 19.1 58 5.7 E 17 22 9 12 1016.0 1015.9 0.0
26/10:30pm 27.8 27.6 19.3 60 5.5 E 19 26 10 14 1015.9 1015.8 0.0
26/10:00pm 27.8 28.0 19.3 60 5.5 E 17 24 9 13 1015.8 1015.7 0.0
26/09:30pm 27.9 27.9 18.9 58 5.8 ESE 17 22 9 12 1015.8 1015.7 0.0
26/09:00pm 27.9 27.7 18.6 57 6.0 ESE 17 24 9 13 1015.7 1015.6 0.0
26/08:30pm 27.9 28.0 19.1 58 5.7 E 17 22 9 12 1015.6 1015.5 0.0
26/08:00pm 27.8 27.5 19.1 59 5.6 E 19 24 10 13 1015.2 1015.1 0.0
26/07:30pm 27.9 28.2 19.7 61 5.3 ESE 17 22 9 12 1015.1 1015.0 0.0
26/07:00pm 28.0 28.3 19.5 60 5.5 ESE 17 22 9 12 1014.8 1014.7 0.0
26/06:30pm 28.1 27.9 18.5 56 6.1 ESE 17 22 9 12 1014.6 1014.5 0.0
26/06:00pm 28.8 28.4 18.0 52 6.9 ESE 17 22 9 12 1014.3 1014.2 0.0
26/05:30pm 28.7 27.8 16.9 48 7.4 E 17 20 9 11 1014.0 1013.9 0.0
26/05:00pm 28.7 28.7 18.2 53 6.7 E 15 20 8 11 1013.6 1013.5 0.0
26/04:30pm 29.2 29.7 18.3 51 7.0 E 13 17 7 9 1013.5 1013.4 0.0
26/04:00pm 29.2 29.7 17.4 49 7.5 E 11 15 6 8 1013.4 1013.3 0.0
26/03:30pm 29.3 30.4 18.1 51 7.2 ENE 9 13 5 7 1013.4 1013.3 0.0
26/03:00pm 29.6 30.6 17.8 49 7.5 SE 9 17 5 9 1013.5 1013.4 0.0
26/02:30pm 29.7 31.6 18.5 51 7.2 SSE 6 9 3 5 1013.8 1013.7 0.0
26/02:00pm 29.4 31.4 18.8 53 6.8 SSE 6 13 3 7 1014.1 1014.0 0.0
26/01:30pm 29.3 31.1 19.6 56 6.3 SSE 9 13 5 7 1014.2 1014.1 0.0
26/01:00pm 29.9 32.5 18.3 49 7.4 SE 2 6 1 3 1014.5 1014.4 0.0
26/12:30pm 28.3 30.5 18.4 55 6.3 SSW 4 9 2 5 1015.0 1014.9 0.0
26/12:00pm 29.0 30.8 18.4 52 6.8 SW 6 7 3 4 1015.5 1015.4 0.0
26/11:30am 30.1 33.3 18.8 50 7.3 CALM 0 0 0 0 1015.9 1015.8 0.0
26/11:00am 30.8 33.2 18.8 48 7.8 ENE 4 6 2 3 1016.1 1016.0 0.0
26/10:30am 29.9 33.9 20.5 57 6.2 CALM 0 4 0 2 1016.3 1016.2 0.0
26/10:00am 27.5 29.9 19.6 62 5.1 SW 6 7 3 4 1016.5 1016.4 0.0
26/09:30am 27.2 29.7 19.8 64 4.8 SW 6 7 3 4 1016.5 1016.4 0.0
26/09:00am 27.1 29.5 19.7 64 4.8 WSW 6 7 3 4 1016.4 1016.3 0.0
26/08:30am 26.6 29.2 20.0 67 4.3 WSW 6 7 3 4 1016.1 1016.0 0.0
26/08:00am 26.1 28.2 20.2 70 3.8 SW 9 11 5 6 1015.8 1015.7 0.0
26/07:30am 25.8 27.7 20.6 73 3.4 SW 11 13 6 7 1015.5 1015.4 0.0
26/07:00am 25.6 27.8 21.1 76 3.0 SW 11 13 6 7 1015.2 1015.1 0.0
26/06:30am 25.1 26.9 21.8 82 2.2 SW 15 17 8 9 1015.0 1014.9 0.0
26/06:00am 25.1 26.9 21.8 82 2.2 WSW 15 17 8 9 1015.0 1014.9 0.0
26/05:30am 25.3 27.1 21.2 78 2.7 SW 13 15 7 8 1014.8 1014.7 0.0
26/05:00am 25.6 27.5 21.3 77 2.8 SW 13 17 7 9 1014.4 1014.3 0.0
26/04:30am 26.1 27.4 20.9 73 3.4 WSW 15 15 8 8 1014.3 1014.2 0.0
26/04:00am 26.9 30.0 21.0 70 3.9 WNW 6 9 3 5 1014.1 1014.0 0.0
26/03:30am 27.4 28.8 19.5 62 5.1 N 11 15 6 8 1014.1 1014.0 0.0
26/03:00am 27.5 29.0 19.8 63 5.0 NNE 11 15 6 8 1014.1 1014.0 0.0
26/02:30am 27.6 29.1 19.7 62 5.1 NNE 11 17 6 9 1014.4 1014.3 0.0
26/02:00am 27.5 28.9 19.6 62 5.1 NNE 11 15 6 8 1014.5 1014.4 0.0
26/01:30am 27.5 28.7 19.8 63 5.0 N 13 15 7 8 1014.6 1014.5 0.0
26/01:00am 27.5 28.3 19.0 59 5.5 NNE 13 17 7 9 1014.9 1014.8 0.0
26/12:30am 27.6 29.1 19.7 62 5.1 NNE 11 15 6 8 1015.1 1015.0 0.0
26/12:00am 27.6 28.7 19.7 62 5.1 NNE 13 17 7 9 1015.2 1015.1 0.0
 
Date/Time
EST
Temp
°C
App
Temp
°C
Dew
Point
Rel
Hum
%
Delta-T
°C
Wind Press
QNH
hPa
Press
MSL
hPa
Rain
since 9 am
mm
Dir
 
Spd
km/h
Gust
km/h
Spd
kts
Gust
kts
25/11:30pm 27.6 28.2 19.4 61 5.3 NNE 15 19 8 10 1015.4 1015.3 0.0
25/11:00pm 27.6 28.2 19.4 61 5.3 NNE 15 19 8 10 1015.4 1015.3 0.0
25/10:30pm 27.8 28.2 19.1 59 5.6 NNE 15 19 8 10 1015.4 1015.3 0.0
25/10:00pm 27.9 28.1 18.6 57 6.0 N 15 17 8 9 1015.5 1015.4 0.0
25/09:30pm 28.0 28.1 18.4 56 6.1 NNE 15 20 8 11 1015.4 1015.3 0.0
25/09:00pm 28.0 27.4 17.5 52 6.6 N 17 20 9 11 1015.1 1015.0 0.0
25/08:30pm 28.0 27.4 18.4 56 6.1 NNE 19 22 10 12 1014.8 1014.7 0.0
25/08:00pm 28.0 27.5 18.7 57 6.0 NNE 19 22 10 12 1014.4 1014.3 0.0
25/07:30pm 27.9 27.2 19.4 60 5.5 NNE 22 28 12 15 1013.9 1013.8 0.0
25/07:00pm 27.8 26.9 19.1 59 5.6 NNE 22 28 12 15 1013.7 1013.6 0.0
25/06:30pm 27.9 27.0 19.9 61 5.2 NNE 24 30 13 16 1013.3 1013.2 0.0
25/06:00pm 27.9 26.3 19.1 58 5.7 NE 26 32 14 17 1013.0 1012.9 0.0
25/05:30pm 28.0 26.8 19.2 58 5.7 NNE 24 30 13 16 1012.7 1012.6 0.0
25/05:00pm 28.0 26.9 19.5 60 5.5 NNE 24 28 13 15 1012.3 1012.2 0.0
25/04:30pm 28.0 26.9 19.5 60 5.5 NE 24 28 13 15 1012.3 1012.2 0.0
25/04:00pm 28.0 27.5 20.0 61 5.2 NE 22 26 12 14 1012.3 1012.2 0.0
25/03:30pm 28.1 28.0 19.9 61 5.4 NE 20 22 11 12 1012.4 1012.3 0.0
25/03:00pm 28.1 28.3 19.3 58 5.7 NE 17 22 9 12 1012.6 1012.5 0.0
25/02:30pm 28.4 28.5 19.9 60 5.6 ENE 19 24 10 13 1012.7 1012.6 0.0
25/02:00pm 28.1 28.0 19.6 60 5.5 NE 19 20 10 11 1012.9 1012.8 0.0
25/01:30pm 28.3 29.3 19.5 59 5.7 ENE 13 17 7 9 1013.3 1013.2 0.0
25/01:00pm 29.0 30.3 19.3 55 6.3 E 11 15 6 8 1013.8 1013.7 0.0
25/12:30pm 29.3 31.4 20.2 58 6.0 E 9 13 5 7 1014.2 1014.1 0.0
25/12:00pm 29.1 31.0 19.7 57 6.1 ESE 9 13 5 7 1014.7 1014.6 0.0
25/11:30am 29.3 31.4 20.2 58 6.0 NE 9 13 5 7 1015.0 1014.9 0.0
25/11:00am 29.6 31.8 19.3 54 6.7 E 6 9 3 5 1015.3 1015.2 0.0
25/10:30am 29.8 32.7 19.8 55 6.6 N 4 7 2 4 1015.6 1015.5 0.0
25/10:00am 27.5 29.9 20.1 64 4.8 SW 7 11 4 6 1015.6 1015.5 0.0
25/09:30am 27.4 29.3 20.5 66 4.5 WSW 11 17 6 9 1015.6 1015.5 0.0
25/09:00am 26.7 27.2 20.1 67 4.3 WSW 17 19 9 10 1015.7 1015.6 0.0
25/08:30am 26.2 26.7 20.1 69 4.0 WSW 17 19 9 10 1015.6 1015.5 0.0

Other Formats:

Comma delimited format used in spreadsheet applications
http://www.bom.gov.au/fwo/IDQ60801/IDQ60801.94295.axf

JavaScript Object Notation format (JSON) in row-major order
http://www.bom.gov.au/fwo/IDQ60801/IDQ60801.94295.json